KBLV/BLV METAR and TAF weather

Enter ICAO airport designator
Station Type Date Time Source
KBLV METAR 2024/06/14 03:38 UTC NOAA

KBLV 140338Z 00000KT 10SM -DZ SCT055 BKN120 OVC160 27/22 A2993 RMK AO2A LTG DSNT SW-W SLP134 $


Station Type Date Time Source
KBLV Decoded METAR 2024/06/14 03:38 UTC NOAA

Belleville, Scott AFB/MidAmerica Airport, IL, United States (KBLV) 38-33N 089-51W
Jun 13, 2024 - 11:38 PM EDT / 2024.06.14 0338 UTC
Wind: Calm:0
Visibility: 10 mile(s):0
Sky conditions: overcast
Weather: light drizzle; Lightning observed
Temperature: 80 F (27 C)
Dew Point: 71 F (22 C)
Relative Humidity: 74%
Pressure (altimeter): 29.93 in. Hg (1013 hPa)
ob: KBLV 140338Z 00000KT 10SM -DZ SCT055 BKN120 OVC160 27/22 A2993 RMK AO2A LTG DSNT SW-W SLP134
cycle: 3

Station Type Date Time Source
KBLV TAF 2024/06/14 00:05 UTC NOAA